sensor_id;sensor_type;location;lat;lon;timestamp;pressure;altitude;pressure_sealevel;temperature
14023;BMP180;7086;48.116;11.580;2022-07-21T00:00:32;95699.00;;;25.90
14023;BMP180;7086;48.116;11.580;2022-07-21T00:03:14;95693.00;;;25.80
14023;BMP180;7086;48.116;11.580;2022-07-21T00:06:14;95709.00;;;25.70
14023;BMP180;7086;48.116;11.580;2022-07-21T00:08:43;95708.00;;;25.70
14023;BMP180;7086;48.116;11.580;2022-07-21T00:11:11;95707.00;;;25.70
14023;BMP180;7086;48.116;11.580;2022-07-21T00:13:53;95698.00;;;25.70
14023;BMP180;7086;48.116;11.580;2022-07-21T00:16:24;95700.00;;;25.70
14023;BMP180;7086;48.116;11.580;2022-07-21T00:19:08;95707.00;;;25.70
14023;BMP180;7086;48.116;11.580;2022-07-21T00:21:40;95711.00;;;25.70
14023;BMP180;7086;48.116;11.580;2022-07-21T00:24:21;95717.00;;;25.80
14023;BMP180;7086;48.116;11.580;2022-07-21T00:26:51;95703.00;;;25.80
14023;BMP180;7086;48.116;11.580;2022-07-21T00:29:32;95710.00;;;25.80
14023;BMP180;7086;48.116;11.580;2022-07-21T00:32:00;95721.00;;;25.90
14023;BMP180;7086;48.116;11.580;2022-07-21T00:34:30;95725.00;;;25.90
14023;BMP180;7086;48.116;11.580;2022-07-21T00:37:08;95725.00;;;25.90
14023;BMP180;7086;48.116;11.580;2022-07-21T00:39:37;95732.00;;;26.00
14023;BMP180;7086;48.116;11.580;2022-07-21T00:42:07;95738.00;;;26.00
14023;BMP180;7086;48.116;11.580;2022-07-21T00:44:35;95747.00;;;26.00
14023;BMP180;7086;48.116;11.580;2022-07-21T00:47:04;95743.00;;;26.00
14023;BMP180;7086;48.116;11.580;2022-07-21T00:49:33;95746.00;;;26.10
14023;BMP180;7086;48.116;11.580;2022-07-21T00:52:02;95734.00;;;26.10
14023;BMP180;7086;48.116;11.580;2022-07-21T00:54:31;95738.00;;;26.10
14023;BMP180;7086;48.116;11.580;2022-07-21T00:57:00;95728.00;;;26.10
14023;BMP180;7086;48.116;11.580;2022-07-21T00:59:29;95725.00;;;26.10
14023;BMP180;7086;48.116;11.580;2022-07-21T01:01:57;95726.00;;;26.10
14023;BMP180;7086;48.116;11.580;2022-07-21T01:04:25;95727.00;;;26.10
14023;BMP180;7086;48.116;11.580;2022-07-21T01:06:54;95727.00;;;26.10
14023;BMP180;7086;48.116;11.580;2022-07-21T01:09:24;95733.00;;;26.20
14023;BMP180;7086;48.116;11.580;2022-07-21T01:11:52;95735.00;;;26.20
14023;BMP180;7086;48.116;11.580;2022-07-21T01:14:20;95731.00;;;26.20
14023;BMP180;7086;48.116;11.580;2022-07-21T01:16:48;95744.00;;;26.20
14023;BMP180;7086;48.116;11.580;2022-07-21T01:19:16;95737.00;;;26.10
14023;BMP180;7086;48.116;11.580;2022-07-21T01:21:49;95726.00;;;26.10
14023;BMP180;7086;48.116;11.580;2022-07-21T01:24:20;95736.00;;;26.10
14023;BMP180;7086;48.116;11.580;2022-07-21T01:26:51;95733.00;;;26.10
14023;BMP180;7086;48.116;11.580;2022-07-21T01:29:20;95727.00;;;26.10
14023;BMP180;7086;48.116;11.580;2022-07-21T01:32:03;95723.00;;;26.10
14023;BMP180;7086;48.116;11.580;2022-07-21T01:34:40;95721.00;;;26.10
14023;BMP180;7086;48.116;11.580;2022-07-21T01:37:10;95707.00;;;26.10
14023;BMP180;7086;48.116;11.580;2022-07-21T01:39:40;95700.00;;;26.10
14023;BMP180;7086;48.116;11.580;2022-07-21T01:42:25;95700.00;;;26.10
14023;BMP180;7086;48.116;11.580;2022-07-21T01:44:55;95699.00;;;26.20
14023;BMP180;7086;48.116;11.580;2022-07-21T01:47:36;95704.00;;;26.20
14023;BMP180;7086;48.116;11.580;2022-07-21T01:50:10;95696.00;;;26.20
14023;BMP180;7086;48.116;11.580;2022-07-21T01:55:54;95706.00;;;26.20
14023;BMP180;7086;48.116;11.580;2022-07-21T01:58:27;95683.00;;;26.30
14023;BMP180;7086;48.116;11.580;2022-07-21T02:01:08;95721.00;;;26.30
14023;BMP180;7086;48.116;11.580;2022-07-21T02:03:38;95715.00;;;26.30
14023;BMP180;7086;48.116;11.580;2022-07-21T02:06:06;95709.00;;;26.30
14023;BMP180;7086;48.116;11.580;2022-07-21T02:08:36;95708.00;;;26.30
14023;BMP180;7086;48.116;11.580;2022-07-21T02:11:12;95714.00;;;26.40
14023;BMP180;7086;48.116;11.580;2022-07-21T02:13:49;95700.00;;;26.40
14023;BMP180;7086;48.116;11.580;2022-07-21T02:16:18;95709.00;;;26.40
14023;BMP180;7086;48.116;11.580;2022-07-21T02:18:46;95714.00;;;26.40
14023;BMP180;7086;48.116;11.580;2022-07-21T02:21:15;95717.00;;;26.40
14023;BMP180;7086;48.116;11.580;2022-07-21T02:23:45;95718.00;;;26.40
14023;BMP180;7086;48.116;11.580;2022-07-21T02:26:15;95722.00;;;26.40
14023;BMP180;7086;48.116;11.580;2022-07-21T02:28:46;95717.00;;;26.40
14023;BMP180;7086;48.116;11.580;2022-07-21T02:31:14;95724.00;;;26.50
14023;BMP180;7086;48.116;11.580;2022-07-21T02:33:46;95725.00;;;26.50
14023;BMP180;7086;48.116;11.580;2022-07-21T02:36:15;95731.00;;;26.50
14023;BMP180;7086;48.116;11.580;2022-07-21T02:38:43;95729.00;;;26.50
14023;BMP180;7086;48.116;11.580;2022-07-21T02:41:14;95732.00;;;26.50
14023;BMP180;7086;48.116;11.580;2022-07-21T02:43:44;95731.00;;;26.50
14023;BMP180;7086;48.116;11.580;2022-07-21T02:46:13;95736.00;;;26.40
14023;BMP180;7086;48.116;11.580;2022-07-21T02:48:41;95722.00;;;26.40
14023;BMP180;7086;48.116;11.580;2022-07-21T02:51:09;95736.00;;;26.40
14023;BMP180;7086;48.116;11.580;2022-07-21T02:53:37;95738.00;;;26.40
14023;BMP180;7086;48.116;11.580;2022-07-21T02:56:07;95737.00;;;26.40
14023;BMP180;7086;48.116;11.580;2022-07-21T02:58:39;95741.00;;;26.40
14023;BMP180;7086;48.116;11.580;2022-07-21T03:01:07;95736.00;;;26.40
14023;BMP180;7086;48.116;11.580;2022-07-21T03:03:37;95727.00;;;26.40
14023;BMP180;7086;48.116;11.580;2022-07-21T03:06:19;95724.00;;;26.30
14023;BMP180;7086;48.116;11.580;2022-07-21T03:09:00;95723.00;;;26.30
14023;BMP180;7086;48.116;11.580;2022-07-21T03:11:28;95725.00;;;26.30
14023;BMP180;7086;48.116;11.580;2022-07-21T03:13:58;95728.00;;;26.30
14023;BMP180;7086;48.116;11.580;2022-07-21T03:16:26;95736.00;;;26.20
14023;BMP180;7086;48.116;11.580;2022-07-21T03:19:08;95727.00;;;26.20
14023;BMP180;7086;48.116;11.580;2022-07-21T03:21:36;95723.00;;;26.20
14023;BMP180;7086;48.116;11.580;2022-07-21T03:24:07;95724.00;;;26.20
14023;BMP180;7086;48.116;11.580;2022-07-21T03:26:37;95725.00;;;26.20
14023;BMP180;7086;48.116;11.580;2022-07-21T03:29:07;95727.00;;;26.20
14023;BMP180;7086;48.116;11.580;2022-07-21T03:31:36;95723.00;;;26.20
14023;BMP180;7086;48.116;11.580;2022-07-21T03:34:04;95720.00;;;26.20
14023;BMP180;7086;48.116;11.580;2022-07-21T03:36:33;95716.00;;;26.30
14023;BMP180;7086;48.116;11.580;2022-07-21T03:39:03;95704.00;;;26.30
14023;BMP180;7086;48.116;11.580;2022-07-21T03:41:31;95716.00;;;26.30
14023;BMP180;7086;48.116;11.580;2022-07-21T03:43:59;95718.00;;;26.30
14023;BMP180;7086;48.116;11.580;2022-07-21T03:46:33;95711.00;;;26.30
14023;BMP180;7086;48.116;11.580;2022-07-21T03:49:02;95706.00;;;26.30
14023;BMP180;7086;48.116;11.580;2022-07-21T03:51:31;95728.00;;;26.40
14023;BMP180;7086;48.116;11.580;2022-07-21T03:53:59;95746.00;;;26.40
14023;BMP180;7086;48.116;11.580;2022-07-21T03:56:28;95751.00;;;26.40
14023;BMP180;7086;48.116;11.580;2022-07-21T03:58:56;95738.00;;;26.40
14023;BMP180;7086;48.116;11.580;2022-07-21T04:01:24;95746.00;;;26.50
14023;BMP180;7086;48.116;11.580;2022-07-21T04:03:53;95749.00;;;26.50
14023;BMP180;7086;48.116;11.580;2022-07-21T04:06:21;95753.00;;;26.50
14023;BMP180;7086;48.116;11.580;2022-07-21T04:08:49;95752.00;;;26.50
14023;BMP180;7086;48.116;11.580;2022-07-21T04:11:16;95761.00;;;26.50
14023;BMP180;7086;48.116;11.580;2022-07-21T04:13:44;95760.00;;;26.50
14023;BMP180;7086;48.116;11.580;2022-07-21T04:16:12;95759.00;;;26.50
14023;BMP180;7086;48.116;11.580;2022-07-21T04:18:39;95755.00;;;26.50
14023;BMP180;7086;48.116;11.580;2022-07-21T04:21:09;95765.00;;;26.50
14023;BMP180;7086;48.116;11.580;2022-07-21T04:23:36;95764.00;;;26.50
14023;BMP180;7086;48.116;11.580;2022-07-21T04:26:04;95759.00;;;26.50
14023;BMP180;7086;48.116;11.580;2022-07-21T04:28:32;95763.00;;;26.50
14023;BMP180;7086;48.116;11.580;2022-07-21T04:31:00;95770.00;;;26.40
14023;BMP180;7086;48.116;11.580;2022-07-21T04:33:27;95775.00;;;26.40
14023;BMP180;7086;48.116;11.580;2022-07-21T04:35:55;95772.00;;;26.40
14023;BMP180;7086;48.116;11.580;2022-07-21T04:38:24;95774.00;;;26.40
14023;BMP180;7086;48.116;11.580;2022-07-21T04:40:52;95778.00;;;26.40
14023;BMP180;7086;48.116;11.580;2022-07-21T04:43:20;95786.00;;;26.40
14023;BMP180;7086;48.116;11.580;2022-07-21T04:45:48;95767.00;;;26.40
14023;BMP180;7086;48.116;11.580;2022-07-21T04:48:16;95786.00;;;26.40
14023;BMP180;7086;48.116;11.580;2022-07-21T04:50:43;95783.00;;;26.40
14023;BMP180;7086;48.116;11.580;2022-07-21T04:53:11;95794.00;;;26.50
14023;BMP180;7086;48.116;11.580;2022-07-21T04:55:40;95788.00;;;26.50
14023;BMP180;7086;48.116;11.580;2022-07-21T04:58:08;95791.00;;;26.50
14023;BMP180;7086;48.116;11.580;2022-07-21T05:00:36;95798.00;;;26.50
14023;BMP180;7086;48.116;11.580;2022-07-21T05:03:04;95800.00;;;26.50
14023;BMP180;7086;48.116;11.580;2022-07-21T05:08:16;95805.00;;;26.60
14023;BMP180;7086;48.116;11.580;2022-07-21T05:10:48;95803.00;;;26.60
14023;BMP180;7086;48.116;11.580;2022-07-21T05:13:17;95813.00;;;26.60
14023;BMP180;7086;48.116;11.580;2022-07-21T05:15:44;95808.00;;;26.60
14023;BMP180;7086;48.116;11.580;2022-07-21T05:18:12;95814.00;;;26.70
14023;BMP180;7086;48.116;11.580;2022-07-21T05:20:40;95818.00;;;26.70
14023;BMP180;7086;48.116;11.580;2022-07-21T05:23:09;95833.00;;;26.80
14023;BMP180;7086;48.116;11.580;2022-07-21T05:25:37;95829.00;;;26.80
14023;BMP180;7086;48.116;11.580;2022-07-21T05:28:07;95829.00;;;26.80
14023;BMP180;7086;48.116;11.580;2022-07-21T05:30:35;95825.00;;;26.90
14023;BMP180;7086;48.116;11.580;2022-07-21T05:33:03;95831.00;;;26.80
14023;BMP180;7086;48.116;11.580;2022-07-21T05:35:31;95835.00;;;26.90
14023;BMP180;7086;48.116;11.580;2022-07-21T05:37:59;95817.00;;;27.00
14023;BMP180;7086;48.116;11.580;2022-07-21T05:40:28;95834.00;;;27.00
14023;BMP180;7086;48.116;11.580;2022-07-21T05:42:55;95840.00;;;27.10
14023;BMP180;7086;48.116;11.580;2022-07-21T05:45:25;95842.00;;;27.20
14023;BMP180;7086;48.116;11.580;2022-07-21T05:47:53;95834.00;;;27.30
14023;BMP180;7086;48.116;11.580;2022-07-21T05:50:21;95835.00;;;27.40
14023;BMP180;7086;48.116;11.580;2022-07-21T05:52:49;95834.00;;;27.50
14023;BMP180;7086;48.116;11.580;2022-07-21T05:55:17;95840.00;;;27.70
14023;BMP180;7086;48.116;11.580;2022-07-21T05:57:45;95810.00;;;27.80
14023;BMP180;7086;48.116;11.580;2022-07-21T06:00:14;95843.00;;;27.90
14023;BMP180;7086;48.116;11.580;2022-07-21T06:02:49;95838.00;;;28.10
14023;BMP180;7086;48.116;11.580;2022-07-21T06:05:17;95840.00;;;28.20
14023;BMP180;7086;48.116;11.580;2022-07-21T06:07:47;95846.00;;;28.30
14023;BMP180;7086;48.116;11.580;2022-07-21T06:10:15;95842.00;;;28.40
14023;BMP180;7086;48.116;11.580;2022-07-21T06:12:44;95852.00;;;28.50
14023;BMP180;7086;48.116;11.580;2022-07-21T06:15:13;95843.00;;;28.50
14023;BMP180;7086;48.116;11.580;2022-07-21T06:17:44;95849.00;;;28.60
14023;BMP180;7086;48.116;11.580;2022-07-21T06:20:13;95856.00;;;28.60
14023;BMP180;7086;48.116;11.580;2022-07-21T06:22:43;95858.00;;;28.60
14023;BMP180;7086;48.116;11.580;2022-07-21T06:25:13;95863.00;;;28.60
14023;BMP180;7086;48.116;11.580;2022-07-21T06:27:41;95857.00;;;28.60
14023;BMP180;7086;48.116;11.580;2022-07-21T06:30:10;95864.00;;;28.60
14023;BMP180;7086;48.116;11.580;2022-07-21T06:32:39;95867.00;;;28.60
14023;BMP180;7086;48.116;11.580;2022-07-21T06:35:21;95864.00;;;28.70
14023;BMP180;7086;48.116;11.580;2022-07-21T06:37:50;95866.00;;;28.80
14023;BMP180;7086;48.116;11.580;2022-07-21T06:40:20;95867.00;;;28.80
14023;BMP180;7086;48.116;11.580;2022-07-21T06:42:48;95873.00;;;28.80
14023;BMP180;7086;48.116;11.580;2022-07-21T06:45:16;95871.00;;;28.80
14023;BMP180;7086;48.116;11.580;2022-07-21T06:47:45;95873.00;;;28.80
14023;BMP180;7086;48.116;11.580;2022-07-21T06:50:16;95865.00;;;28.70
14023;BMP180;7086;48.116;11.580;2022-07-21T06:52:44;95884.00;;;28.70
14023;BMP180;7086;48.116;11.580;2022-07-21T06:55:12;95878.00;;;28.60
14023;BMP180;7086;48.116;11.580;2022-07-21T06:57:45;95878.00;;;28.60
14023;BMP180;7086;48.116;11.580;2022-07-21T07:00:16;95889.00;;;28.60
14023;BMP180;7086;48.116;11.580;2022-07-21T07:02:59;95886.00;;;28.60
14023;BMP180;7086;48.116;11.580;2022-07-21T07:05:29;95885.00;;;28.70
14023;BMP180;7086;48.116;11.580;2022-07-21T07:07:59;95891.00;;;28.70
14023;BMP180;7086;48.116;11.580;2022-07-21T07:10:27;95880.00;;;28.70
14023;BMP180;7086;48.116;11.580;2022-07-21T07:12:56;95896.00;;;28.70
14023;BMP180;7086;48.116;11.580;2022-07-21T07:15:25;95889.00;;;28.70
14023;BMP180;7086;48.116;11.580;2022-07-21T07:17:54;95892.00;;;28.70
14023;BMP180;7086;48.116;11.580;2022-07-21T07:20:25;95890.00;;;28.80
14023;BMP180;7086;48.116;11.580;2022-07-21T07:22:54;95887.00;;;28.80
14023;BMP180;7086;48.116;11.580;2022-07-21T07:25:22;95889.00;;;28.80
14023;BMP180;7086;48.116;11.580;2022-07-21T07:27:53;95886.00;;;28.80
14023;BMP180;7086;48.116;11.580;2022-07-21T07:30:23;95886.00;;;28.90
14023;BMP180;7086;48.116;11.580;2022-07-21T07:32:51;95890.00;;;28.90
14023;BMP180;7086;48.116;11.580;2022-07-21T07:35:20;95891.00;;;28.90
14023;BMP180;7086;48.116;11.580;2022-07-21T07:37:48;95890.00;;;29.00
14023;BMP180;7086;48.116;11.580;2022-07-21T07:40:21;95889.00;;;29.00
14023;BMP180;7086;48.116;11.580;2022-07-21T07:42:49;95893.00;;;29.10
14023;BMP180;7086;48.116;11.580;2022-07-21T07:45:18;95900.00;;;29.10
14023;BMP180;7086;48.116;11.580;2022-07-21T07:47:46;95901.00;;;29.00
14023;BMP180;7086;48.116;11.580;2022-07-21T07:50:15;95897.00;;;29.00
14023;BMP180;7086;48.116;11.580;2022-07-21T07:52:44;95902.00;;;29.00
14023;BMP180;7086;48.116;11.580;2022-07-21T07:55:13;95897.00;;;29.00
14023;BMP180;7086;48.116;11.580;2022-07-21T07:57:43;95896.00;;;28.90
14023;BMP180;7086;48.116;11.580;2022-07-21T08:00:14;95909.00;;;28.80
14023;BMP180;7086;48.116;11.580;2022-07-21T08:02:43;95907.00;;;29.00
14023;BMP180;7086;48.116;11.580;2022-07-21T08:05:12;95903.00;;;29.00
14023;BMP180;7086;48.116;11.580;2022-07-21T08:07:58;95914.00;;;28.90
14023;BMP180;7086;48.116;11.580;2022-07-21T08:10:40;95905.00;;;28.80
14023;BMP180;7086;48.116;11.580;2022-07-21T08:13:48;95905.00;;;28.80
14023;BMP180;7086;48.116;11.580;2022-07-21T08:16:37;95905.00;;;28.80
14023;BMP180;7086;48.116;11.580;2022-07-21T08:19:29;95836.00;;;28.70
14023;BMP180;7086;48.116;11.580;2022-07-21T08:22:16;95912.00;;;28.70
14023;BMP180;7086;48.116;11.580;2022-07-21T08:24:58;95913.00;;;28.70
14023;BMP180;7086;48.116;11.580;2022-07-21T08:27:40;95908.00;;;28.70
14023;BMP180;7086;48.116;11.580;2022-07-21T08:37:09;95909.00;;;28.70
14023;BMP180;7086;48.116;11.580;2022-07-21T08:39:36;95910.00;;;28.70
14023;BMP180;7086;48.116;11.580;2022-07-21T08:42:07;95911.00;;;28.50
14023;BMP180;7086;48.116;11.580;2022-07-21T08:44:35;95906.00;;;28.60
14023;BMP180;7086;48.116;11.580;2022-07-21T08:47:05;95913.00;;;28.60
14023;BMP180;7086;48.116;11.580;2022-07-21T08:49:35;95913.00;;;28.60
14023;BMP180;7086;48.116;11.580;2022-07-21T08:52:18;95912.00;;;28.50
14023;BMP180;7086;48.116;11.580;2022-07-21T08:54:47;95915.00;;;28.40
14023;BMP180;7086;48.116;11.580;2022-07-21T08:57:16;95916.00;;;28.40
14023;BMP180;7086;48.116;11.580;2022-07-21T08:59:45;95916.00;;;28.30
14023;BMP180;7086;48.116;11.580;2022-07-21T09:02:27;95918.00;;;28.30
14023;BMP180;7086;48.116;11.580;2022-07-21T09:04:58;95923.00;;;28.30
14023;BMP180;7086;48.116;11.580;2022-07-21T09:10:29;95915.00;;;28.20
14023;BMP180;7086;48.116;11.580;2022-07-21T09:13:00;95919.00;;;28.20
14023;BMP180;7086;48.116;11.580;2022-07-21T09:15:30;95918.00;;;28.20
14023;BMP180;7086;48.116;11.580;2022-07-21T09:18:14;95924.00;;;28.20
14023;BMP180;7086;48.116;11.580;2022-07-21T09:20:49;95918.00;;;28.20
14023;BMP180;7086;48.116;11.580;2022-07-21T09:23:34;95915.00;;;28.20
14023;BMP180;7086;48.116;11.580;2022-07-21T09:29:36;95917.00;;;28.20
14023;BMP180;7086;48.116;11.580;2022-07-21T09:32:28;95928.00;;;28.10
14023;BMP180;7086;48.116;11.580;2022-07-21T09:35:02;95940.00;;;28.10
14023;BMP180;7086;48.116;11.580;2022-07-21T09:37:37;95928.00;;;28.10
14023;BMP180;7086;48.116;11.580;2022-07-21T09:40:07;95929.00;;;28.10
14023;BMP180;7086;48.116;11.580;2022-07-21T09:42:38;95933.00;;;28.10
14023;BMP180;7086;48.116;11.580;2022-07-21T09:45:15;95928.00;;;28.10
14023;BMP180;7086;48.116;11.580;2022-07-21T09:47:45;95935.00;;;28.10
14023;BMP180;7086;48.116;11.580;2022-07-21T09:50:16;95939.00;;;28.10
14023;BMP180;7086;48.116;11.580;2022-07-21T09:52:46;95939.00;;;28.10
14023;BMP180;7086;48.116;11.580;2022-07-21T09:55:16;95946.00;;;28.00
14023;BMP180;7086;48.116;11.580;2022-07-21T09:57:45;95947.00;;;27.90
14023;BMP180;7086;48.116;11.580;2022-07-21T10:00:26;95945.00;;;27.70
14023;BMP180;7086;48.116;11.580;2022-07-21T10:02:57;95949.00;;;27.50
14023;BMP180;7086;48.116;11.580;2022-07-21T10:05:26;95952.00;;;27.30
14023;BMP180;7086;48.116;11.580;2022-07-21T10:07:55;95957.00;;;27.20
14023;BMP180;7086;48.116;11.580;2022-07-21T10:10:37;95953.00;;;27.00
14023;BMP180;7086;48.116;11.580;2022-07-21T10:13:07;95960.00;;;26.80
14023;BMP180;7086;48.116;11.580;2022-07-21T10:15:40;95958.00;;;26.70
14023;BMP180;7086;48.116;11.580;2022-07-21T10:18:11;95963.00;;;26.50
14023;BMP180;7086;48.116;11.580;2022-07-21T10:20:46;95931.00;;;26.40
14023;BMP180;7086;48.116;11.580;2022-07-21T10:23:22;95960.00;;;26.30
14023;BMP180;7086;48.116;11.580;2022-07-21T10:25:56;95964.00;;;26.20
14023;BMP180;7086;48.116;11.580;2022-07-21T10:28:24;95963.00;;;26.10
14023;BMP180;7086;48.116;11.580;2022-07-21T10:30:58;95970.00;;;25.90
14023;BMP180;7086;48.116;11.580;2022-07-21T10:34:13;95929.00;;;25.70
14023;BMP180;7086;48.116;11.580;2022-07-21T10:36:52;95977.00;;;25.70
14023;BMP180;7086;48.116;11.580;2022-07-21T10:39:25;95971.00;;;25.70
14023;BMP180;7086;48.116;11.580;2022-07-21T10:41:56;95959.00;;;25.50
14023;BMP180;7086;48.116;11.580;2022-07-21T10:44:46;95967.00;;;25.40
14023;BMP180;7086;48.116;11.580;2022-07-21T10:47:36;95957.00;;;25.40
14023;BMP180;7086;48.116;11.580;2022-07-21T10:50:05;95958.00;;;25.30
14023;BMP180;7086;48.116;11.580;2022-07-21T10:53:00;95965.00;;;25.30
14023;BMP180;7086;48.116;11.580;2022-07-21T10:55:29;95959.00;;;25.30
14023;BMP180;7086;48.116;11.580;2022-07-21T10:58:13;95955.00;;;25.30
14023;BMP180;7086;48.116;11.580;2022-07-21T11:00:46;95959.00;;;25.30
14023;BMP180;7086;48.116;11.580;2022-07-21T11:03:20;95957.00;;;25.40
14023;BMP180;7086;48.116;11.580;2022-07-21T11:06:17;95955.00;;;25.40
14023;BMP180;7086;48.116;11.580;2022-07-21T11:08:49;95948.00;;;25.40
14023;BMP180;7086;48.116;11.580;2022-07-21T11:11:20;95949.00;;;25.40
14023;BMP180;7086;48.116;11.580;2022-07-21T11:14:01;95946.00;;;25.50
14023;BMP180;7086;48.116;11.580;2022-07-21T11:16:58;95954.00;;;25.50
14023;BMP180;7086;48.116;11.580;2022-07-21T11:20:14;95937.00;;;25.70
14023;BMP180;7086;48.116;11.580;2022-07-21T11:22:53;95945.00;;;25.80
14023;BMP180;7086;48.116;11.580;2022-07-21T11:25:29;95943.00;;;25.90
14023;BMP180;7086;48.116;11.580;2022-07-21T11:27:57;95949.00;;;26.00
14023;BMP180;7086;48.116;11.580;2022-07-21T11:30:26;95939.00;;;26.10
14023;BMP180;7086;48.116;11.580;2022-07-21T11:32:55;95937.00;;;26.20
14023;BMP180;7086;48.116;11.580;2022-07-21T11:35:28;95938.00;;;26.20
14023;BMP180;7086;48.116;11.580;2022-07-21T11:37:55;95931.00;;;26.30
14023;BMP180;7086;48.116;11.580;2022-07-21T11:40:29;95934.00;;;26.40
14023;BMP180;7086;48.116;11.580;2022-07-21T11:42:57;95937.00;;;26.50
14023;BMP180;7086;48.116;11.580;2022-07-21T11:45:25;95928.00;;;26.60
14023;BMP180;7086;48.116;11.580;2022-07-21T11:47:54;95930.00;;;26.70
14023;BMP180;7086;48.116;11.580;2022-07-21T11:50:26;95933.00;;;26.70
14023;BMP180;7086;48.116;11.580;2022-07-21T11:53:01;95924.00;;;26.80
14023;BMP180;7086;48.116;11.580;2022-07-21T11:55:43;95926.00;;;26.90
14023;BMP180;7086;48.116;11.580;2022-07-21T11:58:43;95926.00;;;26.90
14023;BMP180;7086;48.116;11.580;2022-07-21T12:01:26;95926.00;;;27.00
14023;BMP180;7086;48.116;11.580;2022-07-21T12:48:12;95907.00;;;28.50
14023;BMP180;7086;48.116;11.580;2022-07-21T12:51:04;95918.00;;;28.50
14023;BMP180;7086;48.116;11.580;2022-07-21T12:53:34;95914.00;;;28.70
14023;BMP180;7086;48.116;11.580;2022-07-21T12:56:20;95939.00;;;28.70
14023;BMP180;7086;48.116;11.580;2022-07-21T12:59:03;95850.00;;;28.80
14023;BMP180;7086;48.116;11.580;2022-07-21T13:01:52;95898.00;;;28.80
14023;BMP180;7086;48.116;11.580;2022-07-21T13:04:38;95912.00;;;28.80
14023;BMP180;7086;48.116;11.580;2022-07-21T13:07:37;95903.00;;;29.00
14023;BMP180;7086;48.116;11.580;2022-07-21T13:10:23;95902.00;;;29.10
14023;BMP180;7086;48.116;11.580;2022-07-21T13:12:55;95892.00;;;29.20
14023;BMP180;7086;48.116;11.580;2022-07-21T13:15:38;95896.00;;;29.30
14023;BMP180;7086;48.116;11.580;2022-07-21T13:18:20;95895.00;;;29.40
14023;BMP180;7086;48.116;11.580;2022-07-21T13:21:05;95896.00;;;29.50
14023;BMP180;7086;48.116;11.580;2022-07-21T13:23:52;95878.00;;;29.60
14023;BMP180;7086;48.116;11.580;2022-07-21T13:26:35;95889.00;;;29.70
14023;BMP180;7086;48.116;11.580;2022-07-21T14:48:50;95832.00;;;30.00
14023;BMP180;7086;48.116;11.580;2022-07-21T14:51:28;95878.00;;;30.00
14023;BMP180;7086;48.116;11.580;2022-07-21T14:54:27;95856.00;;;29.90
14023;BMP180;7086;48.116;11.580;2022-07-21T14:57:28;95794.00;;;29.90
14023;BMP180;7086;48.116;11.580;2022-07-21T15:00:11;95849.00;;;29.90
14023;BMP180;7086;48.116;11.580;2022-07-21T15:02:57;95806.00;;;30.00
14023;BMP180;7086;48.116;11.580;2022-07-21T15:05:41;95847.00;;;30.10
14023;BMP180;7086;48.116;11.580;2022-07-21T15:08:11;95846.00;;;30.40
14023;BMP180;7086;48.116;11.580;2022-07-21T15:10:41;95838.00;;;30.60
14023;BMP180;7086;48.116;11.580;2022-07-21T15:13:24;95829.00;;;30.80
14023;BMP180;7086;48.116;11.580;2022-07-21T15:16:07;95851.00;;;30.90
14023;BMP180;7086;48.116;11.580;2022-07-21T15:18:48;95836.00;;;31.00
14023;BMP180;7086;48.116;11.580;2022-07-21T15:32:05;95802.00;;;31.20
14023;BMP180;7086;48.116;11.580;2022-07-21T15:34:47;95836.00;;;31.10
14023;BMP180;7086;48.116;11.580;2022-07-21T15:42:26;95823.00;;;31.10
14023;BMP180;7086;48.116;11.580;2022-07-21T15:50:20;95820.00;;;31.30
14023;BMP180;7086;48.116;11.580;2022-07-21T15:52:52;95813.00;;;31.30
14023;BMP180;7086;48.116;11.580;2022-07-21T15:55:25;95812.00;;;31.40
14023;BMP180;7086;48.116;11.580;2022-07-21T15:57:56;95814.00;;;31.40
14023;BMP180;7086;48.116;11.580;2022-07-21T16:00:38;95810.00;;;31.40
14023;BMP180;7086;48.116;11.580;2022-07-21T16:03:06;95821.00;;;31.40
14023;BMP180;7086;48.116;11.580;2022-07-21T16:05:43;95817.00;;;31.40
14023;BMP180;7086;48.116;11.580;2022-07-21T16:08:13;95814.00;;;31.40
14023;BMP180;7086;48.116;11.580;2022-07-21T16:10:47;95812.00;;;31.40
14023;BMP180;7086;48.116;11.580;2022-07-21T16:13:18;95815.00;;;31.40
14023;BMP180;7086;48.116;11.580;2022-07-21T16:15:48;95812.00;;;31.20
14023;BMP180;7086;48.116;11.580;2022-07-21T16:18:31;95810.00;;;31.40
14023;BMP180;7086;48.116;11.580;2022-07-21T17:16:32;95776.00;;;29.70
14023;BMP180;7086;48.116;11.580;2022-07-21T17:19:08;95803.00;;;29.60
14023;BMP180;7086;48.116;11.580;2022-07-21T17:21:51;95781.00;;;29.40
14023;BMP180;7086;48.116;11.580;2022-07-21T17:24:33;95773.00;;;29.60
14023;BMP180;7086;48.116;11.580;2022-07-21T17:27:21;95770.00;;;29.50
14023;BMP180;7086;48.116;11.580;2022-07-21T17:29:49;95765.00;;;29.50
14023;BMP180;7086;48.116;11.580;2022-07-21T17:32:34;95749.00;;;29.50
14023;BMP180;7086;48.116;11.580;2022-07-21T17:35:13;95769.00;;;29.40
14023;BMP180;7086;48.116;11.580;2022-07-21T17:37:56;95792.00;;;29.40
14023;BMP180;7086;48.116;11.580;2022-07-21T17:40:30;95777.00;;;29.30
14023;BMP180;7086;48.116;11.580;2022-07-21T17:43:17;95799.00;;;29.30
14023;BMP180;7086;48.116;11.580;2022-07-21T17:45:52;95717.00;;;29.30
14023;BMP180;7086;48.116;11.580;2022-07-21T17:48:54;95789.00;;;29.20
14023;BMP180;7086;48.116;11.580;2022-07-21T17:51:36;95720.00;;;29.20
14023;BMP180;7086;48.116;11.580;2022-07-21T17:54:04;95770.00;;;29.20
14023;BMP180;7086;48.116;11.580;2022-07-21T17:56:37;95775.00;;;29.20
14023;BMP180;7086;48.116;11.580;2022-07-21T17:59:34;95770.00;;;29.20
14023;BMP180;7086;48.116;11.580;2022-07-21T18:02:02;95775.00;;;29.20
14023;BMP180;7086;48.116;11.580;2022-07-21T18:04:48;95777.00;;;29.10
14023;BMP180;7086;48.116;11.580;2022-07-21T18:07:16;95769.00;;;29.10
14023;BMP180;7086;48.116;11.580;2022-07-21T18:09:58;95772.00;;;29.00
14023;BMP180;7086;48.116;11.580;2022-07-21T18:12:44;95765.00;;;29.00
14023;BMP180;7086;48.116;11.580;2022-07-21T18:15:39;95801.00;;;29.00
14023;BMP180;7086;48.116;11.580;2022-07-21T18:18:24;95780.00;;;29.00
14023;BMP180;7086;48.116;11.580;2022-07-21T18:21:09;95780.00;;;28.90
14023;BMP180;7086;48.116;11.580;2022-07-21T18:23:39;95768.00;;;28.90
14023;BMP180;7086;48.116;11.580;2022-07-21T18:26:11;95792.00;;;28.90